sensor_id;sensor_type;location;lat;lon;timestamp;temperature;humidity
5508;DHT22;2776;51.046;6.772;2023-02-01T00:00:10;6.80;99.90
5508;DHT22;2776;51.046;6.772;2023-02-01T00:02:37;6.80;99.90
5508;DHT22;2776;51.046;6.772;2023-02-01T00:05:08;6.80;99.90
5508;DHT22;2776;51.046;6.772;2023-02-01T00:07:35;6.80;99.90
5508;DHT22;2776;51.046;6.772;2023-02-01T00:10:02;6.80;99.90
5508;DHT22;2776;51.046;6.772;2023-02-01T00:12:29;6.80;99.90
5508;DHT22;2776;51.046;6.772;2023-02-01T00:14:56;6.80;99.90
5508;DHT22;2776;51.046;6.772;2023-02-01T00:17:23;6.80;99.90
5508;DHT22;2776;51.046;6.772;2023-02-01T00:19:50;6.80;99.90
5508;DHT22;2776;51.046;6.772;2023-02-01T00:22:18;6.80;99.90
5508;DHT22;2776;51.046;6.772;2023-02-01T00:24:45;6.80;99.90
5508;DHT22;2776;51.046;6.772;2023-02-01T00:27:11;6.80;99.90
5508;DHT22;2776;51.046;6.772;2023-02-01T00:29:43;6.80;99.90
5508;DHT22;2776;51.046;6.772;2023-02-01T00:32:10;6.80;99.90
5508;DHT22;2776;51.046;6.772;2023-02-01T00:34:37;6.80;99.90
5508;DHT22;2776;51.046;6.772;2023-02-01T00:37:03;6.70;99.90
5508;DHT22;2776;51.046;6.772;2023-02-01T00:39:31;6.70;99.90
5508;DHT22;2776;51.046;6.772;2023-02-01T00:41:59;6.50;99.90
5508;DHT22;2776;51.046;6.772;2023-02-01T00:44:26;6.50;99.90
5508;DHT22;2776;51.046;6.772;2023-02-01T00:46:53;6.50;99.90
5508;DHT22;2776;51.046;6.772;2023-02-01T00:49:20;6.50;99.90
5508;DHT22;2776;51.046;6.772;2023-02-01T00:51:47;6.30;99.90
5508;DHT22;2776;51.046;6.772;2023-02-01T00:54:13;6.30;99.90
5508;DHT22;2776;51.046;6.772;2023-02-01T00:56:42;6.20;99.90
5508;DHT22;2776;51.046;6.772;2023-02-01T00:59:11;6.20;99.90
5508;DHT22;2776;51.046;6.772;2023-02-01T01:01:38;6.10;99.90
5508;DHT22;2776;51.046;6.772;2023-02-01T01:04:05;6.10;99.90
5508;DHT22;2776;51.046;6.772;2023-02-01T01:06:33;6.10;99.90
5508;DHT22;2776;51.046;6.772;2023-02-01T01:09:02;6.10;99.90
5508;DHT22;2776;51.046;6.772;2023-02-01T01:11:31;6.10;99.90
5508;DHT22;2776;51.046;6.772;2023-02-01T01:14:00;5.90;99.90
5508;DHT22;2776;51.046;6.772;2023-02-01T01:16:28;5.90;99.90
5508;DHT22;2776;51.046;6.772;2023-02-01T01:18:55;5.90;99.90
5508;DHT22;2776;51.046;6.772;2023-02-01T01:21:22;5.90;99.90
5508;DHT22;2776;51.046;6.772;2023-02-01T01:23:49;5.90;99.90
5508;DHT22;2776;51.046;6.772;2023-02-01T01:26:18;6.00;99.90
5508;DHT22;2776;51.046;6.772;2023-02-01T01:28:45;5.80;99.90
5508;DHT22;2776;51.046;6.772;2023-02-01T01:31:14;5.80;99.90
5508;DHT22;2776;51.046;6.772;2023-02-01T01:33:41;5.80;99.90
5508;DHT22;2776;51.046;6.772;2023-02-01T01:36:09;5.80;99.90
5508;DHT22;2776;51.046;6.772;2023-02-01T01:38:37;5.80;99.90
5508;DHT22;2776;51.046;6.772;2023-02-01T01:41:04;5.80;99.90
5508;DHT22;2776;51.046;6.772;2023-02-01T01:43:47;5.80;99.90
5508;DHT22;2776;51.046;6.772;2023-02-01T01:46:17;5.80;99.90
5508;DHT22;2776;51.046;6.772;2023-02-01T01:48:46;5.70;99.90
5508;DHT22;2776;51.046;6.772;2023-02-01T01:51:16;5.70;99.90
5508;DHT22;2776;51.046;6.772;2023-02-01T01:53:49;5.70;99.90
5508;DHT22;2776;51.046;6.772;2023-02-01T01:56:19;5.60;99.90
5508;DHT22;2776;51.046;6.772;2023-02-01T01:58:46;5.60;99.90
5508;DHT22;2776;51.046;6.772;2023-02-01T02:01:13;5.60;99.90
5508;DHT22;2776;51.046;6.772;2023-02-01T02:03:43;5.60;99.90
5508;DHT22;2776;51.046;6.772;2023-02-01T02:06:17;5.60;99.90
5508;DHT22;2776;51.046;6.772;2023-02-01T02:08:47;5.60;99.90
5508;DHT22;2776;51.046;6.772;2023-02-01T02:11:16;5.70;99.90
5508;DHT22;2776;51.046;6.772;2023-02-01T02:13:47;5.70;99.90
5508;DHT22;2776;51.046;6.772;2023-02-01T02:16:23;5.80;99.90
5508;DHT22;2776;51.046;6.772;2023-02-01T02:19:04;5.90;99.90
5508;DHT22;2776;51.046;6.772;2023-02-01T02:21:56;5.90;99.90
5508;DHT22;2776;51.046;6.772;2023-02-01T02:24:49;6.00;99.90
5508;DHT22;2776;51.046;6.772;2023-02-01T02:27:23;6.00;99.90
5508;DHT22;2776;51.046;6.772;2023-02-01T02:30:16;6.00;99.90
5508;DHT22;2776;51.046;6.772;2023-02-01T02:33:26;6.00;99.90
5508;DHT22;2776;51.046;6.772;2023-02-01T02:36:03;6.00;99.90
5508;DHT22;2776;51.046;6.772;2023-02-01T02:38:47;6.10;99.90
5508;DHT22;2776;51.046;6.772;2023-02-01T02:41:19;6.10;99.90
5508;DHT22;2776;51.046;6.772;2023-02-01T02:44:07;6.00;99.90
5508;DHT22;2776;51.046;6.772;2023-02-01T02:46:59;6.00;99.90
5508;DHT22;2776;51.046;6.772;2023-02-01T02:49:52;5.90;99.90
5508;DHT22;2776;51.046;6.772;2023-02-01T02:52:37;6.00;99.90
5508;DHT22;2776;51.046;6.772;2023-02-01T02:55:23;6.00;99.90
5508;DHT22;2776;51.046;6.772;2023-02-01T02:57:51;6.00;99.90
5508;DHT22;2776;51.046;6.772;2023-02-01T03:00:36;6.10;99.90
5508;DHT22;2776;51.046;6.772;2023-02-01T03:03:21;6.10;99.90
5508;DHT22;2776;51.046;6.772;2023-02-01T03:06:12;6.00;99.90
5508;DHT22;2776;51.046;6.772;2023-02-01T03:08:41;6.00;99.90
5508;DHT22;2776;51.046;6.772;2023-02-01T03:11:12;6.00;99.90
5508;DHT22;2776;51.046;6.772;2023-02-01T03:13:45;6.00;99.90
5508;DHT22;2776;51.046;6.772;2023-02-01T03:16:19;5.90;99.90
5508;DHT22;2776;51.046;6.772;2023-02-01T03:18:55;5.90;99.90
5508;DHT22;2776;51.046;6.772;2023-02-01T03:21:27;5.90;99.90
5508;DHT22;2776;51.046;6.772;2023-02-01T03:24:00;5.90;99.90
5508;DHT22;2776;51.046;6.772;2023-02-01T03:26:29;5.90;99.90
5508;DHT22;2776;51.046;6.772;2023-02-01T03:29:00;5.90;99.90
5508;DHT22;2776;51.046;6.772;2023-02-01T03:31:29;5.90;99.90
5508;DHT22;2776;51.046;6.772;2023-02-01T03:33:55;5.90;99.90
5508;DHT22;2776;51.046;6.772;2023-02-01T03:36:27;6.00;99.90
5508;DHT22;2776;51.046;6.772;2023-02-01T03:39:01;6.00;99.90
5508;DHT22;2776;51.046;6.772;2023-02-01T03:41:34;6.00;99.90
5508;DHT22;2776;51.046;6.772;2023-02-01T03:44:06;5.90;99.90
5508;DHT22;2776;51.046;6.772;2023-02-01T03:46:39;5.90;99.90
5508;DHT22;2776;51.046;6.772;2023-02-01T03:49:09;6.00;99.90
5508;DHT22;2776;51.046;6.772;2023-02-01T03:51:40;6.10;99.90
5508;DHT22;2776;51.046;6.772;2023-02-01T03:54:10;6.00;99.90
5508;DHT22;2776;51.046;6.772;2023-02-01T03:56:41;6.10;99.90
5508;DHT22;2776;51.046;6.772;2023-02-01T03:59:10;6.10;99.90
5508;DHT22;2776;51.046;6.772;2023-02-01T04:01:37;6.10;99.90
5508;DHT22;2776;51.046;6.772;2023-02-01T04:04:04;6.20;99.90
5508;DHT22;2776;51.046;6.772;2023-02-01T04:06:30;6.10;99.90
5508;DHT22;2776;51.046;6.772;2023-02-01T04:08:58;6.20;99.90
5508;DHT22;2776;51.046;6.772;2023-02-01T04:11:25;6.20;99.90
5508;DHT22;2776;51.046;6.772;2023-02-01T04:13:52;6.20;99.90
5508;DHT22;2776;51.046;6.772;2023-02-01T04:16:19;6.20;99.90
5508;DHT22;2776;51.046;6.772;2023-02-01T04:18:46;6.20;99.90
5508;DHT22;2776;51.046;6.772;2023-02-01T04:21:12;6.20;99.90
5508;DHT22;2776;51.046;6.772;2023-02-01T04:23:39;6.20;99.90
5508;DHT22;2776;51.046;6.772;2023-02-01T04:26:07;6.20;99.90
5508;DHT22;2776;51.046;6.772;2023-02-01T04:28:34;6.20;99.90
5508;DHT22;2776;51.046;6.772;2023-02-01T04:31:01;6.20;99.90
5508;DHT22;2776;51.046;6.772;2023-02-01T04:33:27;6.20;99.90
5508;DHT22;2776;51.046;6.772;2023-02-01T04:35:54;6.20;99.90
5508;DHT22;2776;51.046;6.772;2023-02-01T04:38:21;6.10;99.90
5508;DHT22;2776;51.046;6.772;2023-02-01T04:40:48;6.10;99.90
5508;DHT22;2776;51.046;6.772;2023-02-01T04:43:17;6.00;99.90
5508;DHT22;2776;51.046;6.772;2023-02-01T04:45:47;6.00;99.90
5508;DHT22;2776;51.046;6.772;2023-02-01T04:48:14;5.90;99.90
5508;DHT22;2776;51.046;6.772;2023-02-01T04:50:41;5.80;99.90
5508;DHT22;2776;51.046;6.772;2023-02-01T04:53:10;5.70;99.90
5508;DHT22;2776;51.046;6.772;2023-02-01T04:55:37;5.60;99.90
5508;DHT22;2776;51.046;6.772;2023-02-01T04:58:04;5.60;99.90
5508;DHT22;2776;51.046;6.772;2023-02-01T05:00:32;5.50;99.90
5508;DHT22;2776;51.046;6.772;2023-02-01T05:02:59;5.50;99.90
5508;DHT22;2776;51.046;6.772;2023-02-01T05:05:26;5.40;99.90
5508;DHT22;2776;51.046;6.772;2023-02-01T05:07:53;5.40;99.90
5508;DHT22;2776;51.046;6.772;2023-02-01T05:10:20;5.40;99.90
5508;DHT22;2776;51.046;6.772;2023-02-01T05:12:47;5.40;99.90
5508;DHT22;2776;51.046;6.772;2023-02-01T05:15:33;5.40;99.90
5508;DHT22;2776;51.046;6.772;2023-02-01T05:18:00;5.30;99.90
5508;DHT22;2776;51.046;6.772;2023-02-01T05:20:26;5.30;99.90
5508;DHT22;2776;51.046;6.772;2023-02-01T05:22:53;5.40;99.90
5508;DHT22;2776;51.046;6.772;2023-02-01T05:25:20;5.40;99.90
5508;DHT22;2776;51.046;6.772;2023-02-01T05:27:46;5.40;99.90
5508;DHT22;2776;51.046;6.772;2023-02-01T05:30:13;5.40;99.90
5508;DHT22;2776;51.046;6.772;2023-02-01T05:32:42;5.40;99.90
5508;DHT22;2776;51.046;6.772;2023-02-01T05:35:08;5.40;99.90
5508;DHT22;2776;51.046;6.772;2023-02-01T05:37:35;5.40;99.90
5508;DHT22;2776;51.046;6.772;2023-02-01T05:40:02;5.40;99.90
5508;DHT22;2776;51.046;6.772;2023-02-01T05:42:29;5.40;99.90
5508;DHT22;2776;51.046;6.772;2023-02-01T05:44:56;5.40;99.90
5508;DHT22;2776;51.046;6.772;2023-02-01T05:47:22;5.40;99.90
5508;DHT22;2776;51.046;6.772;2023-02-01T05:49:50;5.40;99.90
5508;DHT22;2776;51.046;6.772;2023-02-01T05:52:17;5.30;99.90
5508;DHT22;2776;51.046;6.772;2023-02-01T05:54:45;5.30;99.90
5508;DHT22;2776;51.046;6.772;2023-02-01T05:57:12;5.40;99.90
5508;DHT22;2776;51.046;6.772;2023-02-01T05:59:39;5.30;99.90
5508;DHT22;2776;51.046;6.772;2023-02-01T06:02:10;5.30;99.90
5508;DHT22;2776;51.046;6.772;2023-02-01T06:04:36;5.30;99.90
5508;DHT22;2776;51.046;6.772;2023-02-01T06:07:05;5.40;99.90
5508;DHT22;2776;51.046;6.772;2023-02-01T06:09:32;5.40;99.90
5508;DHT22;2776;51.046;6.772;2023-02-01T06:11:59;5.30;99.90
5508;DHT22;2776;51.046;6.772;2023-02-01T06:14:26;5.40;99.90
5508;DHT22;2776;51.046;6.772;2023-02-01T06:16:53;5.30;99.90
5508;DHT22;2776;51.046;6.772;2023-02-01T06:19:20;5.30;99.90
5508;DHT22;2776;51.046;6.772;2023-02-01T06:21:47;5.30;99.90
5508;DHT22;2776;51.046;6.772;2023-02-01T06:24:15;5.20;99.90
5508;DHT22;2776;51.046;6.772;2023-02-01T06:26:42;5.20;99.90
5508;DHT22;2776;51.046;6.772;2023-02-01T06:29:09;5.20;99.90
5508;DHT22;2776;51.046;6.772;2023-02-01T06:31:36;5.20;99.90
5508;DHT22;2776;51.046;6.772;2023-02-01T06:34:03;5.20;99.90
5508;DHT22;2776;51.046;6.772;2023-02-01T06:36:30;5.20;99.90
5508;DHT22;2776;51.046;6.772;2023-02-01T06:38:57;5.30;99.90
5508;DHT22;2776;51.046;6.772;2023-02-01T06:41:26;5.30;99.90
5508;DHT22;2776;51.046;6.772;2023-02-01T06:43:53;5.40;99.90
5508;DHT22;2776;51.046;6.772;2023-02-01T06:46:20;5.40;99.90
5508;DHT22;2776;51.046;6.772;2023-02-01T06:48:47;5.50;99.90
5508;DHT22;2776;51.046;6.772;2023-02-01T06:51:22;5.50;99.90
5508;DHT22;2776;51.046;6.772;2023-02-01T06:53:49;5.60;99.90
5508;DHT22;2776;51.046;6.772;2023-02-01T06:56:16;5.60;99.90
5508;DHT22;2776;51.046;6.772;2023-02-01T06:58:44;5.60;99.90
5508;DHT22;2776;51.046;6.772;2023-02-01T07:01:12;5.60;99.90
5508;DHT22;2776;51.046;6.772;2023-02-01T07:03:39;5.60;99.90
5508;DHT22;2776;51.046;6.772;2023-02-01T07:06:06;5.60;99.90
5508;DHT22;2776;51.046;6.772;2023-02-01T07:08:35;5.60;99.90
5508;DHT22;2776;51.046;6.772;2023-02-01T07:11:02;5.70;99.90
5508;DHT22;2776;51.046;6.772;2023-02-01T07:13:29;5.70;99.90
5508;DHT22;2776;51.046;6.772;2023-02-01T07:15:59;5.70;99.90
5508;DHT22;2776;51.046;6.772;2023-02-01T07:18:27;5.60;99.90
5508;DHT22;2776;51.046;6.772;2023-02-01T07:20:54;5.60;99.90
5508;DHT22;2776;51.046;6.772;2023-02-01T07:23:21;5.60;99.90
5508;DHT22;2776;51.046;6.772;2023-02-01T07:25:49;5.60;99.90
5508;DHT22;2776;51.046;6.772;2023-02-01T07:28:19;5.50;99.90
5508;DHT22;2776;51.046;6.772;2023-02-01T07:30:45;5.50;99.90
5508;DHT22;2776;51.046;6.772;2023-02-01T07:33:18;5.50;99.90
5508;DHT22;2776;51.046;6.772;2023-02-01T07:35:45;5.50;99.90
5508;DHT22;2776;51.046;6.772;2023-02-01T07:38:12;5.50;99.90
5508;DHT22;2776;51.046;6.772;2023-02-01T07:40:38;5.60;99.90
5508;DHT22;2776;51.046;6.772;2023-02-01T07:43:05;5.60;99.90
5508;DHT22;2776;51.046;6.772;2023-02-01T07:45:33;5.60;99.90
5508;DHT22;2776;51.046;6.772;2023-02-01T07:48:00;5.60;99.90
5508;DHT22;2776;51.046;6.772;2023-02-01T07:50:28;5.60;99.90
5508;DHT22;2776;51.046;6.772;2023-02-01T07:52:55;5.70;99.90
5508;DHT22;2776;51.046;6.772;2023-02-01T07:55:22;5.60;99.90
5508;DHT22;2776;51.046;6.772;2023-02-01T07:57:48;5.60;99.90
5508;DHT22;2776;51.046;6.772;2023-02-01T08:00:15;5.60;99.90
5508;DHT22;2776;51.046;6.772;2023-02-01T08:03:00;5.60;99.90
5508;DHT22;2776;51.046;6.772;2023-02-01T08:05:28;5.60;99.90
5508;DHT22;2776;51.046;6.772;2023-02-01T08:07:55;5.60;99.90
5508;DHT22;2776;51.046;6.772;2023-02-01T08:10:22;5.50;99.90
5508;DHT22;2776;51.046;6.772;2023-02-01T08:12:48;5.50;99.90
5508;DHT22;2776;51.046;6.772;2023-02-01T08:15:17;5.60;99.90
5508;DHT22;2776;51.046;6.772;2023-02-01T08:17:47;5.60;99.90
5508;DHT22;2776;51.046;6.772;2023-02-01T08:20:14;5.60;99.90
5508;DHT22;2776;51.046;6.772;2023-02-01T08:22:43;5.70;99.90
5508;DHT22;2776;51.046;6.772;2023-02-01T08:25:10;5.70;99.90
5508;DHT22;2776;51.046;6.772;2023-02-01T08:27:37;5.60;99.90
5508;DHT22;2776;51.046;6.772;2023-02-01T08:30:05;5.70;99.90
5508;DHT22;2776;51.046;6.772;2023-02-01T08:32:33;5.70;99.90
5508;DHT22;2776;51.046;6.772;2023-02-01T08:35:00;5.80;99.90
5508;DHT22;2776;51.046;6.772;2023-02-01T08:37:27;5.70;99.90
5508;DHT22;2776;51.046;6.772;2023-02-01T08:39:55;5.80;99.90
5508;DHT22;2776;51.046;6.772;2023-02-01T08:42:22;5.80;99.90
5508;DHT22;2776;51.046;6.772;2023-02-01T08:45:08;5.90;99.90
5508;DHT22;2776;51.046;6.772;2023-02-01T08:47:35;5.90;99.90
5508;DHT22;2776;51.046;6.772;2023-02-01T08:50:02;5.80;99.90
5508;DHT22;2776;51.046;6.772;2023-02-01T08:52:29;5.90;99.90
5508;DHT22;2776;51.046;6.772;2023-02-01T08:54:57;5.90;99.90
5508;DHT22;2776;51.046;6.772;2023-02-01T08:57:23;6.00;99.90
5508;DHT22;2776;51.046;6.772;2023-02-01T08:59:50;6.00;99.90
5508;DHT22;2776;51.046;6.772;2023-02-01T09:02:17;6.20;99.90
5508;DHT22;2776;51.046;6.772;2023-02-01T09:04:44;6.20;99.90
5508;DHT22;2776;51.046;6.772;2023-02-01T09:07:11;6.30;99.90
5508;DHT22;2776;51.046;6.772;2023-02-01T09:09:38;6.40;99.90
5508;DHT22;2776;51.046;6.772;2023-02-01T09:12:07;6.40;99.90
5508;DHT22;2776;51.046;6.772;2023-02-01T09:14:34;6.40;99.90
5508;DHT22;2776;51.046;6.772;2023-02-01T09:17:00;6.50;99.90
5508;DHT22;2776;51.046;6.772;2023-02-01T09:19:27;6.50;99.90
5508;DHT22;2776;51.046;6.772;2023-02-01T09:21:54;6.50;99.90
5508;DHT22;2776;51.046;6.772;2023-02-01T09:24:20;6.40;99.90
5508;DHT22;2776;51.046;6.772;2023-02-01T09:26:47;6.30;99.90
5508;DHT22;2776;51.046;6.772;2023-02-01T09:29:15;6.30;99.90
5508;DHT22;2776;51.046;6.772;2023-02-01T09:31:42;6.30;99.90
5508;DHT22;2776;51.046;6.772;2023-02-01T09:34:09;6.20;99.90
5508;DHT22;2776;51.046;6.772;2023-02-01T09:36:36;6.20;99.90
5508;DHT22;2776;51.046;6.772;2023-02-01T09:39:02;6.30;99.90
5508;DHT22;2776;51.046;6.772;2023-02-01T09:41:38;6.40;99.90
5508;DHT22;2776;51.046;6.772;2023-02-01T09:44:18;6.50;99.90
5508;DHT22;2776;51.046;6.772;2023-02-01T09:46:47;6.50;99.90
5508;DHT22;2776;51.046;6.772;2023-02-01T09:49:20;6.60;99.90
5508;DHT22;2776;51.046;6.772;2023-02-01T09:51:49;6.60;99.90
5508;DHT22;2776;51.046;6.772;2023-02-01T09:54:20;6.60;99.90
5508;DHT22;2776;51.046;6.772;2023-02-01T09:56:52;6.50;99.90
5508;DHT22;2776;51.046;6.772;2023-02-01T09:59:31;6.60;99.90
5508;DHT22;2776;51.046;6.772;2023-02-01T10:02:02;6.60;99.90
5508;DHT22;2776;51.046;6.772;2023-02-01T10:04:29;6.60;99.90
5508;DHT22;2776;51.046;6.772;2023-02-01T10:07:12;6.60;99.90
5508;DHT22;2776;51.046;6.772;2023-02-01T10:09:52;6.50;99.90
5508;DHT22;2776;51.046;6.772;2023-02-01T10:12:54;6.70;99.90
5508;DHT22;2776;51.046;6.772;2023-02-01T10:15:43;6.80;99.90
5508;DHT22;2776;51.046;6.772;2023-02-01T10:18:26;6.90;99.90
5508;DHT22;2776;51.046;6.772;2023-02-01T10:20:59;7.10;99.90
5508;DHT22;2776;51.046;6.772;2023-02-01T10:23:43;7.20;99.90
5508;DHT22;2776;51.046;6.772;2023-02-01T10:26:18;7.30;99.90
5508;DHT22;2776;51.046;6.772;2023-02-01T10:28:49;7.40;99.90
5508;DHT22;2776;51.046;6.772;2023-02-01T10:31:18;7.40;99.90
5508;DHT22;2776;51.046;6.772;2023-02-01T10:33:47;7.60;99.90
5508;DHT22;2776;51.046;6.772;2023-02-01T10:36:18;7.70;99.90
5508;DHT22;2776;51.046;6.772;2023-02-01T10:38:46;7.60;99.90
5508;DHT22;2776;51.046;6.772;2023-02-01T10:41:15;7.70;99.90
5508;DHT22;2776;51.046;6.772;2023-02-01T10:43:44;7.80;99.90
5508;DHT22;2776;51.046;6.772;2023-02-01T10:46:13;7.90;99.90
5508;DHT22;2776;51.046;6.772;2023-02-01T10:48:41;8.00;99.90
5508;DHT22;2776;51.046;6.772;2023-02-01T10:51:13;8.00;99.90
5508;DHT22;2776;51.046;6.772;2023-02-01T10:53:46;8.00;99.90
5508;DHT22;2776;51.046;6.772;2023-02-01T10:56:14;8.00;99.90
5508;DHT22;2776;51.046;6.772;2023-02-01T10:58:48;8.00;99.90
5508;DHT22;2776;51.046;6.772;2023-02-01T11:01:17;8.10;99.90
5508;DHT22;2776;51.046;6.772;2023-02-01T11:03:52;8.00;99.90
5508;DHT22;2776;51.046;6.772;2023-02-01T11:06:27;8.00;99.90
5508;DHT22;2776;51.046;6.772;2023-02-01T11:08:56;8.00;99.90
5508;DHT22;2776;51.046;6.772;2023-02-01T11:11:24;7.90;99.90
5508;DHT22;2776;51.046;6.772;2023-02-01T11:13:53;7.90;99.90
5508;DHT22;2776;51.046;6.772;2023-02-01T11:16:20;7.80;99.90
5508;DHT22;2776;51.046;6.772;2023-02-01T11:18:53;7.80;99.90
5508;DHT22;2776;51.046;6.772;2023-02-01T11:21:21;7.70;99.90
5508;DHT22;2776;51.046;6.772;2023-02-01T11:23:48;7.80;99.90
5508;DHT22;2776;51.046;6.772;2023-02-01T11:26:20;7.80;99.90
5508;DHT22;2776;51.046;6.772;2023-02-01T11:28:53;7.80;99.90
5508;DHT22;2776;51.046;6.772;2023-02-01T11:31:20;7.90;99.90
5508;DHT22;2776;51.046;6.772;2023-02-01T11:33:52;8.00;99.90
5508;DHT22;2776;51.046;6.772;2023-02-01T11:36:23;7.90;99.90
5508;DHT22;2776;51.046;6.772;2023-02-01T11:38:54;8.10;99.90
5508;DHT22;2776;51.046;6.772;2023-02-01T11:41:23;8.00;99.90
5508;DHT22;2776;51.046;6.772;2023-02-01T11:43:56;8.10;99.90
5508;DHT22;2776;51.046;6.772;2023-02-01T11:46:28;8.10;99.90
5508;DHT22;2776;51.046;6.772;2023-02-01T11:49:15;8.10;99.90
5508;DHT22;2776;51.046;6.772;2023-02-01T11:51:54;8.00;99.90
5508;DHT22;2776;51.046;6.772;2023-02-01T11:54:38;7.90;99.90
5508;DHT22;2776;51.046;6.772;2023-02-01T11:57:19;7.80;99.90
5508;DHT22;2776;51.046;6.772;2023-02-01T11:59:59;7.80;99.90
5508;DHT22;2776;51.046;6.772;2023-02-01T12:02:54;7.80;99.90
5508;DHT22;2776;51.046;6.772;2023-02-01T12:05:34;7.80;99.90
5508;DHT22;2776;51.046;6.772;2023-02-01T12:08:21;7.80;99.90
5508;DHT22;2776;51.046;6.772;2023-02-01T12:10:57;7.80;99.90
5508;DHT22;2776;51.046;6.772;2023-02-01T12:13:38;7.70;99.90
5508;DHT22;2776;51.046;6.772;2023-02-01T12:16:17;7.90;99.90
5508;DHT22;2776;51.046;6.772;2023-02-01T12:18:57;7.90;99.90
5508;DHT22;2776;51.046;6.772;2023-02-01T12:21:52;8.00;99.90
5508;DHT22;2776;51.046;6.772;2023-02-01T12:24:30;8.10;99.90
5508;DHT22;2776;51.046;6.772;2023-02-01T12:27:10;8.20;99.90
5508;DHT22;2776;51.046;6.772;2023-02-01T12:30:03;8.20;99.90
5508;DHT22;2776;51.046;6.772;2023-02-01T12:32:44;8.40;99.90
5508;DHT22;2776;51.046;6.772;2023-02-01T12:35:22;8.50;99.90
5508;DHT22;2776;51.046;6.772;2023-02-01T12:38:16;8.50;99.90
5508;DHT22;2776;51.046;6.772;2023-02-01T12:40:56;8.50;99.90
5508;DHT22;2776;51.046;6.772;2023-02-01T12:43:36;8.50;99.90
5508;DHT22;2776;51.046;6.772;2023-02-01T12:46:08;8.30;99.90
5508;DHT22;2776;51.046;6.772;2023-02-01T12:48:38;8.20;99.90
5508;DHT22;2776;51.046;6.772;2023-02-01T12:51:12;8.10;99.90
5508;DHT22;2776;51.046;6.772;2023-02-01T12:53:46;8.00;99.90
5508;DHT22;2776;51.046;6.772;2023-02-01T12:56:21;8.00;99.90
5508;DHT22;2776;51.046;6.772;2023-02-01T12:58:51;7.90;99.90
5508;DHT22;2776;51.046;6.772;2023-02-01T13:01:22;7.90;99.90
5508;DHT22;2776;51.046;6.772;2023-02-01T13:03:55;7.90;99.90
5508;DHT22;2776;51.046;6.772;2023-02-01T13:06:29;7.90;99.90
5508;DHT22;2776;51.046;6.772;2023-02-01T13:09:04;7.90;99.90
5508;DHT22;2776;51.046;6.772;2023-02-01T13:11:34;7.90;99.90
5508;DHT22;2776;51.046;6.772;2023-02-01T13:14:03;7.90;99.90
5508;DHT22;2776;51.046;6.772;2023-02-01T13:16:33;8.00;99.90
5508;DHT22;2776;51.046;6.772;2023-02-01T13:19:08;8.00;99.90
5508;DHT22;2776;51.046;6.772;2023-02-01T13:21:40;8.00;99.90
5508;DHT22;2776;51.046;6.772;2023-02-01T13:24:26;8.00;99.90
5508;DHT22;2776;51.046;6.772;2023-02-01T13:26:55;7.90;99.90
5508;DHT22;2776;51.046;6.772;2023-02-01T13:29:23;7.90;99.90
5508;DHT22;2776;51.046;6.772;2023-02-01T13:35:06;7.80;99.90
5508;DHT22;2776;51.046;6.772;2023-02-01T13:37:52;7.80;99.90
5508;DHT22;2776;51.046;6.772;2023-02-01T13:40:36;7.80;99.90
5508;DHT22;2776;51.046;6.772;2023-02-01T13:43:08;7.80;99.90
5508;DHT22;2776;51.046;6.772;2023-02-01T13:45:43;7.80;99.90
5508;DHT22;2776;51.046;6.772;2023-02-01T13:48:19;7.80;99.90
5508;DHT22;2776;51.046;6.772;2023-02-01T13:50:51;7.90;99.90
5508;DHT22;2776;51.046;6.772;2023-02-01T13:53:23;7.90;99.90
5508;DHT22;2776;51.046;6.772;2023-02-01T13:55:59;7.90;99.90
5508;DHT22;2776;51.046;6.772;2023-02-01T13:58:31;7.90;99.90
5508;DHT22;2776;51.046;6.772;2023-02-01T14:01:31;7.90;99.90
5508;DHT22;2776;51.046;6.772;2023-02-01T14:03:59;7.90;99.90
5508;DHT22;2776;51.046;6.772;2023-02-01T14:06:39;7.90;99.90
5508;DHT22;2776;51.046;6.772;2023-02-01T14:09:14;7.90;99.90
5508;DHT22;2776;51.046;6.772;2023-02-01T14:11:46;7.90;99.90
5508;DHT22;2776;51.046;6.772;2023-02-01T14:17:34;8.00;99.90
5508;DHT22;2776;51.046;6.772;2023-02-01T14:23:24;8.00;99.90
5508;DHT22;2776;51.046;6.772;2023-02-01T14:26:12;8.00;99.90
5508;DHT22;2776;51.046;6.772;2023-02-01T14:29:02;8.10;99.90
5508;DHT22;2776;51.046;6.772;2023-02-01T14:31:48;8.10;99.90
5508;DHT22;2776;51.046;6.772;2023-02-01T14:34:24;8.10;99.90
5508;DHT22;2776;51.046;6.772;2023-02-01T14:36:55;8.10;99.90
5508;DHT22;2776;51.046;6.772;2023-02-01T14:39:46;8.10;99.90
5508;DHT22;2776;51.046;6.772;2023-02-01T14:42:24;8.00;99.90
5508;DHT22;2776;51.046;6.772;2023-02-01T14:44:54;8.00;99.90
5508;DHT22;2776;51.046;6.772;2023-02-01T14:47:32;8.10;99.90
5508;DHT22;2776;51.046;6.772;2023-02-01T14:50:12;8.10;99.90
5508;DHT22;2776;51.046;6.772;2023-02-01T14:52:44;8.10;99.90
5508;DHT22;2776;51.046;6.772;2023-02-01T14:55:17;8.20;99.90
5508;DHT22;2776;51.046;6.772;2023-02-01T14:57:48;8.20;99.90
5508;DHT22;2776;51.046;6.772;2023-02-01T15:00:22;8.10;99.90
5508;DHT22;2776;51.046;6.772;2023-02-01T15:02:49;8.10;99.90
5508;DHT22;2776;51.046;6.772;2023-02-01T15:05:24;8.10;99.90
5508;DHT22;2776;51.046;6.772;2023-02-01T15:07:52;8.10;99.90
5508;DHT22;2776;51.046;6.772;2023-02-01T15:10:20;8.20;99.90
5508;DHT22;2776;51.046;6.772;2023-02-01T15:12:47;8.10;99.90
5508;DHT22;2776;51.046;6.772;2023-02-01T15:15:18;8.10;99.90
5508;DHT22;2776;51.046;6.772;2023-02-01T15:17:53;8.00;99.90
5508;DHT22;2776;51.046;6.772;2023-02-01T15:20:21;8.00;99.90
5508;DHT22;2776;51.046;6.772;2023-02-01T15:22:56;8.00;99.90
5508;DHT22;2776;51.046;6.772;2023-02-01T15:25:25;8.10;99.90
5508;DHT22;2776;51.046;6.772;2023-02-01T15:27:52;8.00;99.90
5508;DHT22;2776;51.046;6.772;2023-02-01T15:30:23;8.10;99.90
5508;DHT22;2776;51.046;6.772;2023-02-01T15:32:51;8.00;99.90
5508;DHT22;2776;51.046;6.772;2023-02-01T15:35:39;8.00;99.90
5508;DHT22;2776;51.046;6.772;2023-02-01T15:38:34;8.10;99.90
5508;DHT22;2776;51.046;6.772;2023-02-01T15:41:04;8.10;99.90
5508;DHT22;2776;51.046;6.772;2023-02-01T15:43:35;8.10;99.90
5508;DHT22;2776;51.046;6.772;2023-02-01T15:46:08;8.10;99.90
5508;DHT22;2776;51.046;6.772;2023-02-01T15:48:41;8.00;99.90
5508;DHT22;2776;51.046;6.772;2023-02-01T15:51:13;8.10;99.90
5508;DHT22;2776;51.046;6.772;2023-02-01T15:53:45;8.10;99.90
5508;DHT22;2776;51.046;6.772;2023-02-01T15:56:13;8.00;99.90
5508;DHT22;2776;51.046;6.772;2023-02-01T15:58:42;8.10;99.90
5508;DHT22;2776;51.046;6.772;2023-02-01T16:01:11;8.00;99.90
5508;DHT22;2776;51.046;6.772;2023-02-01T16:03:40;8.10;99.90
5508;DHT22;2776;51.046;6.772;2023-02-01T16:06:10;8.00;99.90
5508;DHT22;2776;51.046;6.772;2023-02-01T16:08:48;8.10;99.90
5508;DHT22;2776;51.046;6.772;2023-02-01T16:11:23;8.20;99.90
5508;DHT22;2776;51.046;6.772;2023-02-01T16:13:50;8.20;99.90
5508;DHT22;2776;51.046;6.772;2023-02-01T16:16:18;8.10;99.90
5508;DHT22;2776;51.046;6.772;2023-02-01T16:18:45;8.10;99.90
5508;DHT22;2776;51.046;6.772;2023-02-01T16:21:12;8.10;99.90
5508;DHT22;2776;51.046;6.772;2023-02-01T16:23:39;8.10;99.90
5508;DHT22;2776;51.046;6.772;2023-02-01T16:26:06;8.10;99.90
5508;DHT22;2776;51.046;6.772;2023-02-01T16:28:33;8.10;99.90
5508;DHT22;2776;51.046;6.772;2023-02-01T16:31:00;8.00;99.90
5508;DHT22;2776;51.046;6.772;2023-02-01T16:33:28;7.90;99.90
5508;DHT22;2776;51.046;6.772;2023-02-01T16:35:56;8.00;99.90
5508;DHT22;2776;51.046;6.772;2023-02-01T16:38:25;7.90;99.90
5508;DHT22;2776;51.046;6.772;2023-02-01T16:40:52;7.90;99.90
5508;DHT22;2776;51.046;6.772;2023-02-01T16:43:20;7.80;99.90
5508;DHT22;2776;51.046;6.772;2023-02-01T16:45:49;7.90;99.90
5508;DHT22;2776;51.046;6.772;2023-02-01T16:48:21;7.90;99.90
5508;DHT22;2776;51.046;6.772;2023-02-01T16:50:52;7.80;99.90
5508;DHT22;2776;51.046;6.772;2023-02-01T16:53:19;7.90;99.90